sensor_id;sensor_type;location;lat;lon;timestamp;pressure;altitude;pressure_sealevel;temperature;humidity
56270;BME280;42176;43.240;27.880;2023-05-11T00:00:26;100792.22;;;6.85;100.00
56270;BME280;42176;43.240;27.880;2023-05-11T00:02:52;100790.56;;;7.19;100.00
56270;BME280;42176;43.240;27.880;2023-05-11T00:05:17;100782.66;;;7.14;100.00
56270;BME280;42176;43.240;27.880;2023-05-11T00:07:43;100790.53;;;6.97;100.00
56270;BME280;42176;43.240;27.880;2023-05-11T00:10:09;100794.09;;;7.21;100.00
56270;BME280;42176;43.240;27.880;2023-05-11T00:12:34;100783.59;;;7.36;100.00
56270;BME280;42176;43.240;27.880;2023-05-11T00:15:00;100790.59;;;7.12;100.00
56270;BME280;42176;43.240;27.880;2023-05-11T00:17:25;100793.25;;;7.31;100.00
56270;BME280;42176;43.240;27.880;2023-05-11T00:19:51;100794.16;;;7.49;100.00
56270;BME280;42176;43.240;27.880;2023-05-11T00:22:16;100797.69;;;7.66;100.00
56270;BME280;42176;43.240;27.880;2023-05-11T00:24:41;100788.88;;;7.83;100.00
56270;BME280;42176;43.240;27.880;2023-05-11T00:27:07;100776.41;;;6.79;100.00
56270;BME280;42176;43.240;27.880;2023-05-11T00:29:32;100781.72;;;7.01;100.00
56270;BME280;42176;43.240;27.880;2023-05-11T00:31:58;100786.19;;;7.18;100.00
56270;BME280;42176;43.240;27.880;2023-05-11T00:34:23;100798.56;;;7.43;100.00
56270;BME280;42176;43.240;27.880;2023-05-11T00:36:49;100799.44;;;7.80;100.00
56270;BME280;42176;43.240;27.880;2023-05-11T00:39:14;100793.22;;;7.19;100.00
56270;BME280;42176;43.240;27.880;2023-05-11T00:41:39;100794.94;;;7.03;100.00
56270;BME280;42176;43.240;27.880;2023-05-11T00:44:05;100802.03;;;7.22;100.00
56270;BME280;42176;43.240;27.880;2023-05-11T00:46:31;100803.84;;;7.46;100.00
56270;BME280;42176;43.240;27.880;2023-05-11T00:48:57;100800.31;;;7.63;100.00
56270;BME280;42176;43.240;27.880;2023-05-11T00:51:22;100797.69;;;7.63;100.00
56270;BME280;42176;43.240;27.880;2023-05-11T00:53:48;100789.63;;;6.87;100.00
56270;BME280;42176;43.240;27.880;2023-05-11T00:56:14;100780.03;;;7.12;100.00
56270;BME280;42176;43.240;27.880;2023-05-11T00:58:40;100797.66;;;7.47;100.00
56270;BME280;42176;43.240;27.880;2023-05-11T01:01:06;100792.41;;;7.88;100.00
56270;BME280;42176;43.240;27.880;2023-05-11T01:03:32;100795.03;;;7.34;100.00
56270;BME280;42176;43.240;27.880;2023-05-11T01:06:07;100784.38;;;6.98;100.00
56270;BME280;42176;43.240;27.880;2023-05-11T01:08:41;100793.22;;;7.26;100.00
56270;BME280;42176;43.240;27.880;2023-05-11T01:11:20;100801.22;;;7.76;100.00
56270;BME280;42176;43.240;27.880;2023-05-11T01:13:52;100791.50;;;7.31;100.00
56270;BME280;42176;43.240;27.880;2023-05-11T01:16:21;100787.88;;;6.98;100.00
56270;BME280;42176;43.240;27.880;2023-05-11T01:19:01;100797.63;;;7.23;100.00
56270;BME280;42176;43.240;27.880;2023-05-11T01:21:29;100804.72;;;7.42;100.00
56270;BME280;42176;43.240;27.880;2023-05-11T01:27:43;100795.81;;;7.03;100.00
56270;BME280;42176;43.240;27.880;2023-05-11T01:32:45;100793.25;;;7.23;100.00
56270;BME280;42176;43.240;27.880;2023-05-11T01:35:17;100799.44;;;7.53;100.00
56270;BME280;42176;43.240;27.880;2023-05-11T01:40:31;100787.13;;;7.78;100.00
56270;BME280;42176;43.240;27.880;2023-05-11T01:43:00;100773.94;;;7.65;100.00
56270;BME280;42176;43.240;27.880;2023-05-11T01:45:30;100771.09;;;6.70;100.00
56270;BME280;42176;43.240;27.880;2023-05-11T01:47:58;100791.38;;;6.90;100.00
56270;BME280;42176;43.240;27.880;2023-05-11T01:50:28;100794.09;;;7.16;100.00
56270;BME280;42176;43.240;27.880;2023-05-11T01:52:54;100773.03;;;7.24;100.00
56270;BME280;42176;43.240;27.880;2023-05-11T01:55:21;100788.91;;;7.69;100.00
56270;BME280;42176;43.240;27.880;2023-05-11T01:57:50;100782.66;;;7.08;100.00
56270;BME280;42176;43.240;27.880;2023-05-11T02:00:17;100774.66;;;6.81;100.00
56270;BME280;42176;43.240;27.880;2023-05-11T02:02:43;100790.56;;;7.09;100.00
56270;BME280;42176;43.240;27.880;2023-05-11T02:05:14;100795.00;;;7.29;100.00
56270;BME280;42176;43.240;27.880;2023-05-11T02:07:44;100787.13;;;7.44;100.00
56270;BME280;42176;43.240;27.880;2023-05-11T02:10:11;100790.66;;;7.54;100.00
56270;BME280;42176;43.240;27.880;2023-05-11T02:12:38;100767.50;;;6.55;100.00
56270;BME280;42176;43.240;27.880;2023-05-11T02:15:05;100781.69;;;6.85;100.00
56270;BME280;42176;43.240;27.880;2023-05-11T02:17:32;100788.81;;;7.11;100.00
56270;BME280;42176;43.240;27.880;2023-05-11T02:19:59;100793.25;;;7.28;100.00
56270;BME280;42176;43.240;27.880;2023-05-11T02:22:27;100793.31;;;7.62;100.00
56270;BME280;42176;43.240;27.880;2023-05-11T02:24:53;100779.13;;;7.09;100.00
56270;BME280;42176;43.240;27.880;2023-05-11T02:27:19;100779.88;;;6.66;100.00
56270;BME280;42176;43.240;27.880;2023-05-11T02:29:45;100772.06;;;6.89;100.00
56270;BME280;42176;43.240;27.880;2023-05-11T02:32:16;100781.75;;;7.09;100.00
56270;BME280;42176;43.240;27.880;2023-05-11T02:34:44;100780.06;;;7.31;100.00
56270;BME280;42176;43.240;27.880;2023-05-11T02:37:17;100784.47;;;7.47;100.00
56270;BME280;42176;43.240;27.880;2023-05-11T02:39:45;100771.13;;;6.76;100.00
56270;BME280;42176;43.240;27.880;2023-05-11T02:42:21;100781.78;;;7.07;100.00
56270;BME280;42176;43.240;27.880;2023-05-11T02:44:58;100781.81;;;7.32;100.00
56270;BME280;42176;43.240;27.880;2023-05-11T02:47:30;100775.69;;;7.64;100.00
56270;BME280;42176;43.240;27.880;2023-05-11T02:49:58;100768.53;;;6.96;100.00
56270;BME280;42176;43.240;27.880;2023-05-11T02:52:26;100779.16;;;7.13;100.00
56270;BME280;42176;43.240;27.880;2023-05-11T02:54:53;100775.66;;;7.31;100.00
56270;BME280;42176;43.240;27.880;2023-05-11T02:57:19;100783.63;;;7.61;100.00
56270;BME280;42176;43.240;27.880;2023-05-11T02:59:45;100780.97;;;7.75;100.00
56270;BME280;42176;43.240;27.880;2023-05-11T03:02:11;100771.28;;;7.38;100.00
56270;BME280;42176;43.240;27.880;2023-05-11T03:04:38;100777.31;;;6.89;100.00
56270;BME280;42176;43.240;27.880;2023-05-11T03:07:04;100787.97;;;7.20;100.00
56270;BME280;42176;43.240;27.880;2023-05-11T03:09:30;100772.16;;;7.37;100.00
56270;BME280;42176;43.240;27.880;2023-05-11T03:11:58;100788.91;;;7.73;100.00
56270;BME280;42176;43.240;27.880;2023-05-11T03:14:23;100796.78;;;8.20;100.00
56270;BME280;42176;43.240;27.880;2023-05-11T03:16:50;100783.63;;;7.86;100.00
56270;BME280;42176;43.240;27.880;2023-05-11T03:19:16;100787.06;;;7.13;100.00
56270;BME280;42176;43.240;27.880;2023-05-11T03:21:42;100782.72;;;7.50;100.00
56270;BME280;42176;43.240;27.880;2023-05-11T03:24:08;100802.97;;;7.91;100.00
56270;BME280;42176;43.240;27.880;2023-05-11T03:26:35;100799.41;;;8.35;100.00
56270;BME280;42176;43.240;27.880;2023-05-11T03:29:01;100794.19;;;7.78;100.00
56270;BME280;42176;43.240;27.880;2023-05-11T03:31:27;100799.44;;;7.70;100.00
56270;BME280;42176;43.240;27.880;2023-05-11T03:33:53;100798.56;;;8.04;100.00
56270;BME280;42176;43.240;27.880;2023-05-11T03:36:20;100792.16;;;8.99;100.00
56270;BME280;42176;43.240;27.880;2023-05-11T03:38:47;100781.06;;;9.80;100.00
56270;BME280;42176;43.240;27.880;2023-05-11T03:41:14;100782.72;;;9.87;100.00
56270;BME280;42176;43.240;27.880;2023-05-11T03:43:42;100780.56;;;10.30;100.00
56270;BME280;42176;43.240;27.880;2023-05-11T03:46:11;100780.38;;;11.20;100.00
56270;BME280;42176;43.240;27.880;2023-05-11T03:48:38;100783.69;;;11.91;100.00
56270;BME280;42176;43.240;27.880;2023-05-11T03:51:05;100787.22;;;12.45;98.94
56270;BME280;42176;43.240;27.880;2023-05-11T03:53:31;100777.28;;;12.97;94.44
56270;BME280;42176;43.240;27.880;2023-05-11T03:55:57;100783.28;;;13.46;88.82
56270;BME280;42176;43.240;27.880;2023-05-11T03:58:22;100785.53;;;13.65;86.19
56270;BME280;42176;43.240;27.880;2023-05-11T04:00:48;100783.75;;;13.24;88.01
56270;BME280;42176;43.240;27.880;2023-05-11T04:03:14;100771.78;;;13.05;87.77
56270;BME280;42176;43.240;27.880;2023-05-11T04:05:40;100783.13;;;12.71;89.37
56270;BME280;42176;43.240;27.880;2023-05-11T04:08:06;100769.34;;;12.50;91.62
56270;BME280;42176;43.240;27.880;2023-05-11T04:10:32;100779.75;;;13.82;85.78
56270;BME280;42176;43.240;27.880;2023-05-11T04:12:57;100787.94;;;13.76;82.70
56270;BME280;42176;43.240;27.880;2023-05-11T04:15:22;100790.31;;;13.09;86.13
56270;BME280;42176;43.240;27.880;2023-05-11T04:17:48;100799.38;;;13.01;87.95
56270;BME280;42176;43.240;27.880;2023-05-11T04:20:13;100796.75;;;13.40;88.03
56270;BME280;42176;43.240;27.880;2023-05-11T04:22:39;100799.25;;;13.07;87.08
56270;BME280;42176;43.240;27.880;2023-05-11T04:25:05;100807.03;;;12.74;89.55
56270;BME280;42176;43.240;27.880;2023-05-11T04:27:34;100800.09;;;12.65;91.01
56270;BME280;42176;43.240;27.880;2023-05-11T04:30:00;100807.19;;;12.64;91.38
56270;BME280;42176;43.240;27.880;2023-05-11T04:32:26;100805.59;;;14.14;85.80
56270;BME280;42176;43.240;27.880;2023-05-11T04:34:52;100797.31;;;13.91;82.61
56270;BME280;42176;43.240;27.880;2023-05-11T04:37:17;100798.56;;;13.36;87.25
56270;BME280;42176;43.240;27.880;2023-05-11T04:39:43;100807.94;;;14.60;80.90
56270;BME280;42176;43.240;27.880;2023-05-11T04:42:09;100802.00;;;14.82;78.40
56270;BME280;42176;43.240;27.880;2023-05-11T04:44:34;100802.44;;;15.56;73.03
56270;BME280;42176;43.240;27.880;2023-05-11T04:47:00;100800.47;;;16.42;65.06
56270;BME280;42176;43.240;27.880;2023-05-11T04:49:25;100805.06;;;15.84;64.47
56270;BME280;42176;43.240;27.880;2023-05-11T04:51:51;100811.50;;;16.33;65.04
56270;BME280;42176;43.240;27.880;2023-05-11T04:54:16;100812.25;;;16.11;61.70
56270;BME280;42176;43.240;27.880;2023-05-11T04:56:42;100805.38;;;15.47;64.50
56270;BME280;42176;43.240;27.880;2023-05-11T04:59:07;100771.78;;;14.16;69.47
56270;BME280;42176;43.240;27.880;2023-05-11T05:01:33;100821.91;;;15.01;65.16
56270;BME280;42176;43.240;27.880;2023-05-11T05:03:58;100823.13;;;16.05;58.14
56270;BME280;42176;43.240;27.880;2023-05-11T05:06:24;100833.44;;;14.37;63.69
56270;BME280;42176;43.240;27.880;2023-05-11T05:08:49;100828.34;;;13.93;65.40
56270;BME280;42176;43.240;27.880;2023-05-11T05:11:15;100840.78;;;14.29;64.69
56270;BME280;42176;43.240;27.880;2023-05-11T05:13:40;100833.69;;;15.54;60.48
56270;BME280;42176;43.240;27.880;2023-05-11T05:16:06;100828.88;;;14.75;63.18
56270;BME280;42176;43.240;27.880;2023-05-11T05:18:31;100830.56;;;15.96;58.84
56270;BME280;42176;43.240;27.880;2023-05-11T05:20:57;100834.63;;;16.59;56.49
56270;BME280;42176;43.240;27.880;2023-05-11T05:23:22;100831.38;;;16.76;54.87
56270;BME280;42176;43.240;27.880;2023-05-11T05:25:48;100849.16;;;15.13;60.67
56270;BME280;42176;43.240;27.880;2023-05-11T05:28:13;100837.16;;;13.95;66.40
56270;BME280;42176;43.240;27.880;2023-05-11T05:30:39;100843.03;;;13.33;70.98
56270;BME280;42176;43.240;27.880;2023-05-11T05:33:04;100850.84;;;13.42;71.21
56270;BME280;42176;43.240;27.880;2023-05-11T05:35:30;100844.41;;;15.22;62.76
56270;BME280;42176;43.240;27.880;2023-05-11T05:37:56;100839.63;;;14.03;65.68
56270;BME280;42176;43.240;27.880;2023-05-11T05:40:21;100848.34;;;15.97;60.39
56270;BME280;42176;43.240;27.880;2023-05-11T05:42:46;100846.44;;;17.04;52.86
56270;BME280;42176;43.240;27.880;2023-05-11T05:45:12;100833.19;;;15.70;54.08
56270;BME280;42176;43.240;27.880;2023-05-11T05:47:37;100863.41;;;14.12;60.47
56270;BME280;42176;43.240;27.880;2023-05-11T05:50:05;100862.97;;;13.13;68.42
56270;BME280;42176;43.240;27.880;2023-05-11T05:52:30;100872.09;;;12.54;72.88
56270;BME280;42176;43.240;27.880;2023-05-11T05:54:56;100865.06;;;11.39;83.47
56270;BME280;42176;43.240;27.880;2023-05-11T05:57:22;100867.03;;;13.72;76.25
56270;BME280;42176;43.240;27.880;2023-05-11T05:59:47;100867.41;;;15.87;63.41
56270;BME280;42176;43.240;27.880;2023-05-11T06:02:13;100848.22;;;17.27;54.22
56270;BME280;42176;43.240;27.880;2023-05-11T06:04:38;100877.75;;;14.77;60.91
56270;BME280;42176;43.240;27.880;2023-05-11T06:07:04;100862.53;;;13.35;70.28
56270;BME280;42176;43.240;27.880;2023-05-11T06:09:29;100874.34;;;13.21;73.28
56270;BME280;42176;43.240;27.880;2023-05-11T06:11:55;100870.31;;;13.02;74.35
56270;BME280;42176;43.240;27.880;2023-05-11T06:14:21;100829.25;;;13.14;71.28
56270;BME280;42176;43.240;27.880;2023-05-11T06:16:47;100869.97;;;13.99;63.26
56270;BME280;42176;43.240;27.880;2023-05-11T06:19:13;100868.81;;;14.09;64.54
56270;BME280;42176;43.240;27.880;2023-05-11T06:21:39;100883.13;;;16.24;53.34
56270;BME280;42176;43.240;27.880;2023-05-11T06:24:07;100868.47;;;17.12;50.86
56270;BME280;42176;43.240;27.880;2023-05-11T06:26:32;100867.16;;;16.73;50.36
56270;BME280;42176;43.240;27.880;2023-05-11T06:28:58;100877.28;;;18.06;47.50
56270;BME280;42176;43.240;27.880;2023-05-11T06:31:23;100861.44;;;17.32;48.16
56270;BME280;42176;43.240;27.880;2023-05-11T06:33:49;100873.28;;;15.70;52.77
56270;BME280;42176;43.240;27.880;2023-05-11T06:36:14;100876.91;;;14.75;57.41
56270;BME280;42176;43.240;27.880;2023-05-11T06:38:40;100874.81;;;14.18;60.75
56270;BME280;42176;43.240;27.880;2023-05-11T06:41:05;100881.56;;;13.96;62.52
56270;BME280;42176;43.240;27.880;2023-05-11T06:43:32;100877.91;;;13.63;65.65
56270;BME280;42176;43.240;27.880;2023-05-11T06:45:57;100874.50;;;13.56;67.15
56270;BME280;42176;43.240;27.880;2023-05-11T06:48:23;100878.41;;;13.80;67.25
56270;BME280;42176;43.240;27.880;2023-05-11T06:50:50;100882.34;;;13.21;71.82
56270;BME280;42176;43.240;27.880;2023-05-11T06:53:16;100888.41;;;12.84;76.39
56270;BME280;42176;43.240;27.880;2023-05-11T06:55:42;100879.38;;;12.44;81.83
56270;BME280;42176;43.240;27.880;2023-05-11T06:58:08;100885.47;;;12.51;84.76
56270;BME280;42176;43.240;27.880;2023-05-11T07:00:33;100892.00;;;12.80;84.68
56270;BME280;42176;43.240;27.880;2023-05-11T07:02:59;100894.25;;;12.56;84.33
56270;BME280;42176;43.240;27.880;2023-05-11T07:05:24;100889.06;;;12.47;86.04
56270;BME280;42176;43.240;27.880;2023-05-11T07:07:50;100883.31;;;13.16;81.26
56270;BME280;42176;43.240;27.880;2023-05-11T07:10:16;100861.94;;;14.00;73.45
56270;BME280;42176;43.240;27.880;2023-05-11T07:12:41;100876.91;;;14.75;67.55
56270;BME280;42176;43.240;27.880;2023-05-11T07:17:37;100884.34;;;17.17;49.84
56270;BME280;42176;43.240;27.880;2023-05-11T07:20:02;100898.34;;;16.22;56.54
56270;BME280;42176;43.240;27.880;2023-05-11T07:22:28;100894.75;;;14.39;64.13
56270;BME280;42176;43.240;27.880;2023-05-11T07:24:53;100909.38;;;15.83;61.08
56270;BME280;42176;43.240;27.880;2023-05-11T07:27:19;100901.56;;;18.25;51.89
56270;BME280;42176;43.240;27.880;2023-05-11T07:29:44;100898.56;;;16.94;52.93
56270;BME280;42176;43.240;27.880;2023-05-11T07:32:10;100910.25;;;15.55;56.09
56270;BME280;42176;43.240;27.880;2023-05-11T07:34:35;100915.78;;;16.07;53.82
56270;BME280;42176;43.240;27.880;2023-05-11T07:37:00;100919.81;;;16.73;51.57
56270;BME280;42176;43.240;27.880;2023-05-11T07:39:26;100902.00;;;15.01;57.08
56270;BME280;42176;43.240;27.880;2023-05-11T07:41:51;100897.13;;;15.76;56.62
56270;BME280;42176;43.240;27.880;2023-05-11T07:44:17;100913.00;;;15.22;58.62
56270;BME280;42176;43.240;27.880;2023-05-11T07:46:42;100877.22;;;15.58;57.70
56270;BME280;42176;43.240;27.880;2023-05-11T07:49:08;100916.31;;;14.64;62.06
56270;BME280;42176;43.240;27.880;2023-05-11T07:51:35;100902.72;;;16.25;56.98
56270;BME280;42176;43.240;27.880;2023-05-11T07:54:01;100905.25;;;14.80;60.25
56270;BME280;42176;43.240;27.880;2023-05-11T07:56:26;100915.13;;;15.71;57.32
56270;BME280;42176;43.240;27.880;2023-05-11T07:58:52;100900.63;;;14.52;60.72
56270;BME280;42176;43.240;27.880;2023-05-11T08:01:17;100923.06;;;14.79;61.47
56270;BME280;42176;43.240;27.880;2023-05-11T08:03:43;100931.75;;;14.16;62.29
56270;BME280;42176;43.240;27.880;2023-05-11T08:06:08;100911.97;;;13.88;65.30
56270;BME280;42176;43.240;27.880;2023-05-11T08:08:33;100920.81;;;13.50;68.59
56270;BME280;42176;43.240;27.880;2023-05-11T08:11:00;100920.22;;;13.34;72.36
56270;BME280;42176;43.240;27.880;2023-05-11T08:13:25;100910.50;;;15.46;60.48
56270;BME280;42176;43.240;27.880;2023-05-11T08:15:51;100923.41;;;14.65;61.73
56270;BME280;42176;43.240;27.880;2023-05-11T08:18:16;100923.66;;;14.56;63.94
56270;BME280;42176;43.240;27.880;2023-05-11T08:20:42;100922.63;;;13.89;66.75
56270;BME280;42176;43.240;27.880;2023-05-11T08:23:08;100927.69;;;13.61;69.26
56270;BME280;42176;43.240;27.880;2023-05-11T08:25:35;100926.56;;;14.10;67.57
56270;BME280;42176;43.240;27.880;2023-05-11T08:28:01;100951.66;;;13.15;68.79
56270;BME280;42176;43.240;27.880;2023-05-11T08:30:26;100922.63;;;14.61;64.38
56270;BME280;42176;43.240;27.880;2023-05-11T08:32:52;100911.47;;;15.43;56.11
56270;BME280;42176;43.240;27.880;2023-05-11T08:35:17;100904.91;;;17.16;53.65
56270;BME280;42176;43.240;27.880;2023-05-11T08:37:43;100916.31;;;17.69;48.15
56270;BME280;42176;43.240;27.880;2023-05-11T08:40:10;100907.16;;;16.78;50.70
56270;BME280;42176;43.240;27.880;2023-05-11T08:42:39;100918.97;;;15.60;54.56
56270;BME280;42176;43.240;27.880;2023-05-11T08:45:05;100905.13;;;16.06;54.26
56270;BME280;42176;43.240;27.880;2023-05-11T08:47:31;100908.53;;;16.65;51.91
56270;BME280;42176;43.240;27.880;2023-05-11T08:49:57;100893.25;;;17.41;50.53
56270;BME280;42176;43.240;27.880;2023-05-11T08:52:24;100892.84;;;17.98;49.44
56270;BME280;42176;43.240;27.880;2023-05-11T08:54:49;100900.88;;;18.20;48.84
56270;BME280;42176;43.240;27.880;2023-05-11T08:57:15;100904.31;;;17.32;48.76
56270;BME280;42176;43.240;27.880;2023-05-11T08:59:43;100891.28;;;19.18;46.71
56270;BME280;42176;43.240;27.880;2023-05-11T09:04:41;100889.38;;;18.60;47.92
56270;BME280;42176;43.240;27.880;2023-05-11T09:07:08;100873.09;;;17.55;49.25
56270;BME280;42176;43.240;27.880;2023-05-11T09:09:34;100885.56;;;17.08;50.82
56270;BME280;42176;43.240;27.880;2023-05-11T09:12:00;100879.47;;;17.04;50.11
56270;BME280;42176;43.240;27.880;2023-05-11T09:14:26;100885.59;;;16.31;52.85
56270;BME280;42176;43.240;27.880;2023-05-11T09:16:51;100882.84;;;15.77;53.59
56270;BME280;42176;43.240;27.880;2023-05-11T09:19:17;100893.78;;;14.76;54.98
56270;BME280;42176;43.240;27.880;2023-05-11T09:21:43;100884.16;;;14.70;59.60
56270;BME280;42176;43.240;27.880;2023-05-11T09:24:12;100888.06;;;14.57;61.82
56270;BME280;42176;43.240;27.880;2023-05-11T09:26:38;100891.69;;;14.54;60.54
56270;BME280;42176;43.240;27.880;2023-05-11T09:29:04;100880.19;;;14.52;59.96
56270;BME280;42176;43.240;27.880;2023-05-11T09:34:15;100882.59;;;14.27;61.13
56270;BME280;42176;43.240;27.880;2023-05-11T09:36:43;100887.16;;;14.22;61.11
56270;BME280;42176;43.240;27.880;2023-05-11T09:39:09;100876.09;;;14.39;61.40
56270;BME280;42176;43.240;27.880;2023-05-11T09:41:34;100863.56;;;13.70;60.67
56270;BME280;42176;43.240;27.880;2023-05-11T09:44:08;100866.66;;;13.88;63.07
56270;BME280;42176;43.240;27.880;2023-05-11T09:46:35;100874.34;;;13.64;62.81
56270;BME280;42176;43.240;27.880;2023-05-11T09:49:01;100872.00;;;13.88;61.57
56270;BME280;42176;43.240;27.880;2023-05-11T09:51:36;100869.59;;;14.14;61.14
56270;BME280;42176;43.240;27.880;2023-05-11T09:54:18;100880.72;;;14.30;64.81
56270;BME280;42176;43.240;27.880;2023-05-11T09:56:50;100873.84;;;14.22;62.08
56270;BME280;42176;43.240;27.880;2023-05-11T09:59:38;100878.19;;;14.26;64.54
56270;BME280;42176;43.240;27.880;2023-05-11T10:04:43;100867.31;;;13.97;66.56
56270;BME280;42176;43.240;27.880;2023-05-11T10:07:08;100868.69;;;14.15;64.61
56270;BME280;42176;43.240;27.880;2023-05-11T10:09:34;100864.41;;;14.08;60.47
56270;BME280;42176;43.240;27.880;2023-05-11T10:12:00;100868.66;;;13.79;62.59
56270;BME280;42176;43.240;27.880;2023-05-11T10:14:27;100872.72;;;13.96;63.57
56270;BME280;42176;43.240;27.880;2023-05-11T10:16:56;100885.50;;;13.81;63.61
56270;BME280;42176;43.240;27.880;2023-05-11T10:19:22;100871.38;;;13.37;61.70
56270;BME280;42176;43.240;27.880;2023-05-11T10:21:50;100872.97;;;12.56;65.95
56270;BME280;42176;43.240;27.880;2023-05-11T10:24:16;100887.69;;;13.20;62.58
56270;BME280;42176;43.240;27.880;2023-05-11T10:26:42;100870.22;;;13.49;60.01
56270;BME280;42176;43.240;27.880;2023-05-11T10:29:08;100873.44;;;13.63;59.32
56270;BME280;42176;43.240;27.880;2023-05-11T10:31:34;100865.03;;;12.99;65.40
56270;BME280;42176;43.240;27.880;2023-05-11T10:34:02;100861.78;;;13.28;64.95
56270;BME280;42176;43.240;27.880;2023-05-11T10:36:29;100861.56;;;13.39;63.04
56270;BME280;42176;43.240;27.880;2023-05-11T10:38:54;100862.78;;;13.65;63.01
56270;BME280;42176;43.240;27.880;2023-05-11T10:44:29;100862.22;;;13.50;65.48
56270;BME280;42176;43.240;27.880;2023-05-11T10:47:12;100858.28;;;13.67;63.96
56270;BME280;42176;43.240;27.880;2023-05-11T10:49:53;100863.31;;;13.79;63.74
56270;BME280;42176;43.240;27.880;2023-05-11T10:58:21;100865.91;;;13.43;62.89
56270;BME280;42176;43.240;27.880;2023-05-11T11:03:41;100869.31;;;13.51;66.62
56270;BME280;42176;43.240;27.880;2023-05-11T11:06:22;100882.28;;;13.67;63.82
56270;BME280;42176;43.240;27.880;2023-05-11T11:08:59;100868.50;;;13.46;66.19
56270;BME280;42176;43.240;27.880;2023-05-11T11:11:42;100879.34;;;13.37;65.18
56270;BME280;42176;43.240;27.880;2023-05-11T11:14:15;100887.91;;;13.53;64.30
56270;BME280;42176;43.240;27.880;2023-05-11T11:19:38;100871.31;;;13.40;69.30
56270;BME280;42176;43.240;27.880;2023-05-11T11:22:04;100891.72;;;13.80;69.51
56270;BME280;42176;43.240;27.880;2023-05-11T11:24:42;100861.56;;;13.78;69.29
56270;BME280;42176;43.240;27.880;2023-05-11T11:27:08;100869.25;;;13.54;70.70
56270;BME280;42176;43.240;27.880;2023-05-11T11:29:35;100856.63;;;13.20;69.15
56270;BME280;42176;43.240;27.880;2023-05-11T11:34:50;100862.91;;;13.16;71.22
56270;BME280;42176;43.240;27.880;2023-05-11T11:37:16;100862.06;;;13.14;72.62
56270;BME280;42176;43.240;27.880;2023-05-11T11:42:36;100848.63;;;13.20;74.94
56270;BME280;42176;43.240;27.880;2023-05-11T11:45:38;100870.56;;;12.89;69.04
56270;BME280;42176;43.240;27.880;2023-05-11T11:48:05;100853.59;;;12.93;72.18
56270;BME280;42176;43.240;27.880;2023-05-11T11:50:32;100850.88;;;12.97;70.45
56270;BME280;42176;43.240;27.880;2023-05-11T11:52:58;100874.75;;;13.01;66.00
56270;BME280;42176;43.240;27.880;2023-05-11T11:55:46;100870.16;;;13.08;70.52
56270;BME280;42176;43.240;27.880;2023-05-11T12:01:15;100847.16;;;13.07;74.60
56270;BME280;42176;43.240;27.880;2023-05-11T12:03:43;100865.69;;;13.12;73.14
56270;BME280;42176;43.240;27.880;2023-05-11T12:06:12;100868.50;;;13.04;69.58
56270;BME280;42176;43.240;27.880;2023-05-11T12:08:39;100863.28;;;12.98;69.07
56270;BME280;42176;43.240;27.880;2023-05-11T12:11:06;100850.56;;;13.12;69.55
56270;BME280;42176;43.240;27.880;2023-05-11T12:13:32;100856.41;;;12.87;74.71
56270;BME280;42176;43.240;27.880;2023-05-11T12:18:34;100845.56;;;12.97;70.87
56270;BME280;42176;43.240;27.880;2023-05-11T12:20:59;100852.59;;;13.01;73.08
56270;BME280;42176;43.240;27.880;2023-05-11T12:23:25;100852.69;;;12.94;69.27
56270;BME280;42176;43.240;27.880;2023-05-11T12:26:05;100842.25;;;13.29;71.24
56270;BME280;42176;43.240;27.880;2023-05-11T12:28:32;100844.19;;;13.21;71.93
56270;BME280;42176;43.240;27.880;2023-05-11T12:30:57;100843.66;;;13.05;72.73
56270;BME280;42176;43.240;27.880;2023-05-11T12:33:23;100855.31;;;12.98;73.40
56270;BME280;42176;43.240;27.880;2023-05-11T12:35:53;100846.53;;;12.94;74.13
56270;BME280;42176;43.240;27.880;2023-05-11T12:38:19;100831.09;;;13.10;75.39
56270;BME280;42176;43.240;27.880;2023-05-11T12:40:50;100843.09;;;12.87;79.20
56270;BME280;42176;43.240;27.880;2023-05-11T12:43:16;100852.66;;;12.98;76.42
56270;BME280;42176;43.240;27.880;2023-05-11T12:45:42;100840.00;;;12.63;72.72
56270;BME280;42176;43.240;27.880;2023-05-11T12:48:09;100831.13;;;12.66;72.55
56270;BME280;42176;43.240;27.880;2023-05-11T12:50:45;100815.72;;;12.82;70.30
56270;BME280;42176;43.240;27.880;2023-05-11T12:53:15;100809.38;;;13.30;70.59
56270;BME280;42176;43.240;27.880;2023-05-11T12:55:41;100798.38;;;13.47;69.54
56270;BME280;42176;43.240;27.880;2023-05-11T12:58:09;100796.94;;;13.31;71.26
56270;BME280;42176;43.240;27.880;2023-05-11T13:00:35;100794.97;;;13.39;69.36
56270;BME280;42176;43.240;27.880;2023-05-11T13:03:01;100794.78;;;13.07;68.25
56270;BME280;42176;43.240;27.880;2023-05-11T13:05:27;100798.19;;;13.14;70.08
56270;BME280;42176;43.240;27.880;2023-05-11T13:08:03;100795.13;;;13.33;70.52
56270;BME280;42176;43.240;27.880;2023-05-11T13:10:30;100792.38;;;13.36;69.80
56270;BME280;42176;43.240;27.880;2023-05-11T13:12:56;100789.56;;;13.03;66.84
56270;BME280;42176;43.240;27.880;2023-05-11T13:15:23;100791.88;;;13.18;66.42
56270;BME280;42176;43.240;27.880;2023-05-11T13:17:57;100789.78;;;13.33;68.19
56270;BME280;42176;43.240;27.880;2023-05-11T13:23:11;100770.78;;;12.68;70.65
56270;BME280;42176;43.240;27.880;2023-05-11T13:28:17;100764.75;;;13.01;69.93
56270;BME280;42176;43.240;27.880;2023-05-11T13:30:42;100773.78;;;12.93;71.19